createdAt,value
2022-08-23T00:01:47.094Z,4.88
2022-08-23T00:04:22.345Z,6.57
2022-08-23T00:07:05.013Z,4.47
2022-08-23T00:09:37.962Z,4.40
2022-08-23T00:12:13.694Z,6.05
2022-08-23T00:14:48.526Z,4.40
2022-08-23T00:17:33.278Z,3.60
2022-08-23T00:20:09.429Z,3.47
2022-08-23T00:22:42.305Z,4.65
2022-08-23T00:25:15.344Z,7.53
2022-08-23T00:27:47.810Z,8.18
2022-08-23T00:30:20.474Z,11.18
2022-08-23T00:32:53.859Z,6.80
2022-08-23T00:35:30.702Z,8.35
2022-08-23T00:38:32.982Z,7.80
2022-08-23T00:40:56.131Z,8.38
2022-08-23T00:43:50.799Z,8.07
2022-08-23T00:46:57.378Z,8.25
2022-08-23T00:49:32.151Z,9.50
2022-08-23T00:52:09.747Z,7.57
2022-08-23T00:54:43.126Z,7.40
2022-08-23T00:57:18.535Z,7.38
2022-08-23T00:59:51.208Z,7.60
2022-08-23T01:02:24.547Z,8.32
2022-08-23T01:04:59.570Z,7.63
2022-08-23T01:07:46.230Z,7.93
2022-08-23T01:10:24.671Z,10.25
2022-08-23T01:13:05.414Z,8.40
2022-08-23T01:15:43.874Z,8.48
2022-08-23T01:18:21.133Z,10.48
2022-08-23T01:20:58.537Z,8.30
2022-08-23T01:23:40.179Z,7.17
2022-08-23T01:26:14.115Z,7.38
2022-08-23T01:28:48.164Z,6.65
2022-08-23T01:31:23.313Z,8.32
2022-08-23T01:33:58.861Z,5.28
2022-08-23T01:36:31.535Z,8.35
2022-08-23T01:39:07.263Z,6.25
2022-08-23T01:41:40.343Z,6.60
2022-08-23T01:44:14.745Z,7.30
2022-08-23T01:46:47.543Z,8.75
2022-08-23T01:49:20.121Z,7.43
2022-08-23T01:51:52.663Z,8.02
2022-08-23T01:54:25.955Z,10.00
2022-08-23T01:56:58.528Z,7.30
2022-08-23T01:59:31.383Z,10.13
2022-08-23T02:02:05.197Z,8.07
2022-08-23T02:04:37.787Z,8.10
2022-08-23T02:07:10.155Z,7.43
2022-08-23T02:09:44.027Z,8.30
2022-08-23T02:12:16.459Z,6.60
2022-08-23T02:14:49.183Z,8.02
2022-08-23T02:17:27.484Z,7.68
2022-08-23T02:20:01.503Z,7.32
2022-08-23T02:22:33.960Z,8.77
2022-08-23T02:25:08.550Z,7.00
2022-08-23T02:27:42.975Z,7.63
2022-08-23T02:30:18.153Z,8.23
2022-08-23T02:32:51.323Z,6.40
2022-08-23T02:35:25.098Z,6.75
2022-08-23T02:37:57.546Z,10.70
2022-08-23T02:40:30.837Z,5.20
2022-08-23T02:43:04.171Z,6.82
2022-08-23T02:45:37.563Z,7.05
2022-08-23T02:48:10.116Z,8.35
2022-08-23T02:50:58.931Z,6.80
2022-08-23T02:53:32.315Z,7.78
2022-08-23T02:56:17.034Z,6.72
2022-08-23T02:58:54.946Z,6.45
2022-08-23T03:01:33.875Z,5.07
2022-08-23T03:04:18.162Z,6.95
2022-08-23T03:06:50.849Z,7.40
2022-08-23T03:09:23.591Z,8.32
2022-08-23T03:11:56.992Z,8.85
2022-08-23T03:14:29.498Z,5.95
2022-08-23T03:17:04.098Z,5.00
2022-08-23T03:19:36.567Z,5.03
2022-08-23T03:22:09.158Z,4.30
2022-08-23T03:24:41.810Z,6.75
2022-08-23T03:27:15.558Z,6.32
2022-08-23T03:29:49.721Z,6.13
2022-08-23T03:32:22.694Z,6.63
2022-08-23T03:34:58.352Z,6.43
2022-08-23T03:37:30.915Z,6.63
2022-08-23T03:40:06.312Z,5.93
2022-08-23T03:42:39.467Z,6.45
2022-08-23T03:45:12.336Z,7.00
2022-08-23T03:47:44.820Z,5.53
2022-08-23T03:50:17.399Z,6.55
2022-08-23T03:52:50.118Z,5.88
2022-08-23T03:55:22.807Z,4.32
2022-08-23T03:57:57.282Z,5.68
2022-08-23T04:00:30.351Z,5.53
2022-08-23T04:03:02.995Z,5.95
2022-08-23T04:05:38.126Z,5.90
2022-08-23T04:08:13.574Z,7.45
2022-08-23T04:10:48.022Z,6.32
2022-08-23T04:13:22.476Z,5.43
2022-08-23T04:15:54.944Z,5.93
2022-08-23T04:18:29.347Z,6.43
2022-08-23T04:21:05.977Z,6.32
2022-08-23T04:23:39.319Z,7.03
2022-08-23T04:26:12.143Z,7.18
2022-08-23T04:28:48.531Z,8.85
2022-08-23T04:31:22.343Z,6.40
2022-08-23T04:33:56.161Z,9.43
2022-08-23T04:36:34.511Z,7.53
2022-08-23T04:39:08.891Z,7.05
2022-08-23T04:42:00.300Z,8.70
2022-08-23T04:44:35.267Z,9.75
2022-08-23T04:47:08.359Z,10.10
2022-08-23T04:49:41.160Z,7.68
2022-08-23T04:52:18.605Z,10.07
2022-08-23T04:54:52.596Z,7.05
2022-08-23T04:57:35.531Z,9.05
2022-08-23T05:00:11.778Z,5.57
2022-08-23T05:02:47.790Z,7.85
2022-08-23T05:05:20.440Z,7.70
2022-08-23T05:07:53.102Z,6.90
2022-08-23T05:10:25.684Z,7.22
2022-08-23T05:12:59.343Z,6.00
2022-08-23T05:15:32.471Z,6.47
2022-08-23T05:18:09.635Z,6.68
2022-08-23T05:20:42.243Z,9.63
2022-08-23T05:23:14.947Z,6.28
2022-08-23T05:26:02.382Z,7.20
2022-08-23T05:28:48.366Z,8.45
2022-08-23T05:31:27.086Z,7.55
2022-08-23T05:39:36.013Z,8.48
2022-08-23T05:42:14.558Z,8.38
2022-08-23T05:44:47.670Z,7.68
2022-08-23T05:47:26.338Z,9.93
2022-08-23T05:50:09.023Z,8.88
2022-08-23T05:52:42.858Z,9.20
2022-08-23T05:55:16.195Z,8.93
2022-08-23T05:57:59.837Z,7.20
2022-08-23T06:00:37.868Z,7.30
2022-08-23T06:03:12.690Z,6.57
2022-08-23T06:05:45.898Z,8.43
2022-08-23T06:08:18.849Z,7.80
2022-08-23T06:10:59.647Z,7.97
2022-08-23T06:13:34.827Z,9.77
2022-08-23T06:16:14.930Z,7.55
2022-08-23T06:18:50.278Z,9.20
2022-08-23T06:21:48.812Z,7.07
2022-08-23T06:24:29.800Z,6.00
2022-08-23T06:27:17.458Z,8.60
2022-08-23T06:29:50.359Z,9.70
2022-08-23T06:32:50.188Z,8.48
2022-08-23T06:36:03.879Z,8.63
2022-08-23T06:38:56.667Z,8.10
2022-08-23T06:41:48.321Z,11.80
2022-08-23T06:44:32.187Z,8.05
2022-08-23T06:47:36.861Z,7.20
2022-08-23T06:50:09.954Z,8.35
2022-08-23T06:53:01.812Z,7.55
2022-08-23T06:56:08.566Z,4.72
2022-08-23T06:58:53.798Z,7.28
2022-08-23T07:01:51.914Z,6.68
2022-08-23T07:04:34.238Z,7.60
2022-08-23T07:07:25.148Z,7.07
2022-08-23T07:10:13.178Z,6.15
2022-08-23T07:12:45.706Z,7.15
2022-08-23T07:15:18.939Z,8.88
2022-08-23T07:17:51.782Z,8.38
2022-08-23T07:20:24.346Z,6.55
2022-08-23T07:22:57.085Z,7.05
2022-08-23T07:25:32.030Z,6.18
2022-08-23T07:28:11.934Z,6.82
2022-08-23T07:30:46.180Z,8.95
2022-08-23T07:33:19.880Z,6.95
2022-08-23T07:36:29.102Z,4.65
2022-08-23T07:39:04.354Z,7.40
2022-08-23T07:41:38.414Z,5.85
2022-08-23T07:44:12.590Z,9.80
2022-08-23T07:46:50.787Z,7.70
2022-08-23T07:49:23.538Z,10.27
2022-08-23T07:52:03.726Z,6.75
2022-08-23T07:54:36.651Z,9.13
2022-08-23T07:57:29.821Z,6.53
2022-08-23T08:00:12.206Z,5.88
2022-08-23T08:03:04.627Z,8.93
2022-08-23T08:05:56.767Z,7.88
2022-08-23T08:08:29.219Z,7.40
2022-08-23T08:11:01.716Z,10.60
2022-08-23T08:13:37.468Z,7.97
2022-08-23T08:16:21.212Z,9.65
2022-08-23T08:18:55.458Z,9.82
2022-08-23T08:21:47.594Z,8.40
2022-08-23T08:24:31.277Z,8.85
2022-08-23T08:27:08.766Z,7.78
2022-08-23T08:29:43.218Z,9.07
2022-08-23T08:32:15.837Z,8.80
2022-08-23T08:34:49.503Z,5.78
2022-08-23T08:37:22.792Z,11.35
2022-08-23T08:39:55.664Z,7.75
2022-08-23T08:42:51.346Z,7.75
2022-08-23T08:45:27.170Z,6.15
2022-08-23T08:48:08.268Z,7.80
2022-08-23T08:50:55.640Z,9.37
2022-08-23T08:53:34.026Z,7.45
2022-08-23T08:56:22.011Z,7.57
2022-08-23T08:59:05.847Z,7.25
2022-08-23T09:01:39.980Z,7.65
2022-08-23T09:04:12.722Z,8.50
2022-08-23T09:06:54.497Z,8.43
2022-08-23T09:09:53.886Z,8.63
2022-08-23T09:12:37.123Z,8.30
2022-08-23T09:15:19.370Z,7.57
2022-08-23T09:17:59.263Z,9.27
2022-08-23T09:20:34.852Z,10.13
2022-08-23T09:23:12.446Z,8.90
2022-08-23T09:25:52.406Z,9.00
2022-08-23T09:28:29.835Z,8.10
2022-08-23T09:31:03.780Z,5.97
2022-08-23T09:33:40.174Z,5.85
2022-08-23T09:36:17.713Z,7.70
2022-08-23T09:38:55.151Z,7.60
2022-08-23T09:41:35.891Z,6.95
2022-08-23T09:44:12.913Z,7.82
2022-08-23T09:46:46.018Z,4.78
2022-08-23T09:49:26.385Z,6.20
2022-08-23T09:52:16.013Z,5.07
2022-08-23T09:55:02.270Z,5.10
2022-08-23T09:57:37.114Z,4.82
2022-08-23T10:00:28.267Z,5.78
2022-08-23T10:03:23.564Z,5.32
2022-08-23T10:06:00.853Z,7.30
2022-08-23T10:08:52.270Z,7.03
2022-08-23T10:11:29.482Z,6.07
2022-08-23T10:14:02.719Z,5.63
2022-08-23T10:16:41.278Z,6.45
2022-08-23T10:19:28.621Z,6.35
2022-08-23T10:22:10.807Z,5.07
2022-08-23T10:24:54.514Z,5.90
2022-08-23T10:28:04.888Z,5.88
2022-08-23T10:30:51.385Z,5.45
2022-08-23T10:33:36.168Z,4.95
2022-08-23T10:36:16.053Z,5.35
2022-08-23T10:38:56.877Z,5.75
2022-08-23T10:41:51.271Z,5.97
2022-08-23T10:44:28.545Z,5.38
2022-08-23T10:47:26.739Z,5.80
2022-08-23T10:50:05.731Z,5.85
2022-08-23T10:52:45.636Z,6.53
2022-08-23T10:55:35.359Z,6.95
2022-08-23T10:58:15.134Z,4.70
2022-08-23T11:00:49.574Z,5.60
2022-08-23T11:03:29.075Z,5.32
2022-08-23T11:06:41.130Z,4.70
2022-08-23T11:09:51.982Z,5.47
2022-08-23T11:12:30.294Z,4.15
2022-08-23T11:15:10.378Z,6.93
2022-08-23T11:18:00.034Z,4.80
2022-08-23T11:20:59.395Z,7.65
2022-08-23T11:23:43.590Z,5.15
2022-08-23T11:29:31.176Z,5.10
2022-08-23T11:32:38.046Z,5.50
2022-08-23T11:35:37.184Z,5.00
2022-08-23T11:38:37.263Z,7.65
2022-08-23T11:41:22.970Z,4.55
2022-08-23T11:44:21.776Z,4.80
2022-08-23T11:47:03.172Z,5.07
2022-08-23T11:49:55.694Z,5.05
2022-08-23T11:52:46.564Z,4.05
2022-08-23T11:55:35.252Z,5.22
2022-08-23T11:58:22.862Z,5.15
2022-08-23T12:01:06.104Z,7.38
2022-08-23T12:03:56.139Z,5.63
2022-08-23T12:06:50.445Z,6.05
2022-08-23T12:09:55.336Z,7.60
2022-08-23T12:12:38.772Z,6.03
2022-08-23T12:15:16.592Z,5.50
2022-08-23T12:18:06.841Z,5.45
2022-08-23T12:20:41.866Z,6.28
2022-08-23T12:23:17.985Z,4.45
2022-08-23T12:26:04.849Z,5.13
2022-08-23T12:28:45.255Z,3.75
2022-08-23T12:31:25.103Z,8.10
2022-08-23T12:34:15.281Z,4.25
2022-08-23T12:36:59.622Z,5.47
2022-08-23T12:39:35.404Z,4.15
2022-08-23T12:42:14.977Z,6.30
2022-08-23T12:45:00.609Z,6.63
2022-08-23T12:47:34.311Z,5.75
2022-08-23T12:50:15.838Z,6.72
2022-08-23T12:52:58.973Z,7.63
2022-08-23T12:55:35.238Z,7.18
2022-08-23T12:58:09.216Z,6.75
2022-08-23T13:00:51.338Z,4.72
2022-08-23T13:03:28.670Z,6.25
2022-08-23T13:06:06.835Z,7.78
2022-08-23T13:08:49.485Z,6.25
2022-08-23T13:11:31.940Z,5.15
2022-08-23T13:14:23.007Z,6.05
2022-08-23T13:16:58.804Z,5.53
2022-08-23T13:19:32.971Z,5.45
2022-08-23T13:22:14.375Z,4.43
2022-08-23T13:25:24.500Z,4.75
2022-08-23T13:27:54.682Z,4.75
2022-08-23T13:30:29.351Z,3.67
2022-08-23T13:33:19.829Z,3.60
2022-08-23T13:36:05.490Z,2.75
2022-08-23T13:38:46.416Z,5.28
2022-08-23T13:41:31.059Z,4.30
2022-08-23T13:44:06.735Z,4.28
2022-08-23T13:46:45.256Z,4.75
2022-08-23T13:49:21.856Z,4.80
2022-08-23T13:52:38.088Z,4.25
2022-08-23T13:55:00.763Z,3.90
2022-08-23T13:57:36.468Z,5.85
2022-08-23T14:00:10.787Z,3.22
2022-08-23T14:02:48.113Z,5.55
2022-08-23T14:05:22.109Z,3.83
2022-08-23T14:07:55.711Z,5.72
2022-08-23T14:10:28.206Z,3.63
2022-08-23T14:13:01.853Z,4.80
2022-08-23T14:18:26.862Z,6.47
2022-08-23T14:20:59.759Z,3.72
2022-08-23T14:23:32.214Z,4.20
2022-08-23T14:26:04.699Z,8.30
2022-08-23T14:28:40.335Z,5.20
2022-08-23T14:31:19.127Z,4.40
2022-08-23T14:33:51.642Z,3.72
2022-08-23T14:36:24.102Z,3.80
2022-08-23T14:39:02.436Z,4.40
2022-08-23T14:41:35.081Z,3.45
2022-08-23T14:44:08.202Z,3.28
2022-08-23T14:46:40.778Z,3.15
2022-08-23T14:49:14.026Z,5.32
2022-08-23T14:51:49.478Z,4.35
2022-08-23T14:54:23.814Z,5.10
2022-08-23T14:56:56.924Z,5.28
2022-08-23T14:59:30.002Z,4.13
2022-08-23T15:02:04.060Z,3.45
2022-08-23T15:04:38.639Z,4.25
2022-08-23T15:07:19.262Z,6.05
2022-08-23T15:09:54.190Z,7.15
2022-08-23T15:15:21.670Z,3.47
2022-08-23T15:17:58.045Z,2.90
2022-08-23T15:20:33.375Z,3.95
2022-08-23T15:23:07.529Z,4.70
2022-08-23T15:25:43.322Z,5.18
2022-08-23T15:28:17.396Z,4.35
2022-08-23T15:30:51.271Z,5.35
2022-08-23T15:33:30.684Z,3.55
2022-08-23T15:36:04.377Z,4.03
2022-08-23T15:38:38.410Z,7.63
2022-08-23T15:41:11.623Z,5.45
2022-08-23T15:43:44.539Z,4.32
2022-08-23T15:46:20.395Z,6.63
2022-08-23T15:48:55.893Z,5.75
2022-08-23T15:51:28.619Z,4.75
2022-08-23T15:54:02.114Z,4.70
2022-08-23T15:56:39.670Z,5.45
2022-08-23T15:59:14.479Z,5.88
2022-08-23T16:01:48.059Z,4.78
2022-08-23T16:04:20.429Z,3.13
2022-08-23T16:06:52.908Z,7.05
2022-08-23T16:09:26.469Z,3.63
2022-08-23T16:12:00.355Z,4.00
2022-08-23T16:14:32.869Z,5.35
2022-08-23T16:17:07.988Z,3.65
2022-08-23T16:19:40.415Z,5.35
2022-08-23T16:22:13.264Z,4.00
2022-08-23T16:24:45.743Z,5.50
2022-08-23T16:27:18.224Z,5.45
2022-08-23T16:29:50.603Z,4.68
2022-08-23T16:32:23.711Z,6.38
2022-08-23T16:34:56.121Z,7.28
2022-08-23T16:37:28.507Z,5.18
2022-08-23T16:40:00.911Z,5.05
2022-08-23T16:42:33.457Z,5.72
2022-08-23T16:45:07.419Z,5.35
2022-08-23T16:47:43.160Z,4.55
2022-08-23T16:50:17.400Z,4.85
2022-08-23T16:52:50.668Z,6.25
2022-08-23T16:55:23.762Z,3.65
2022-08-23T16:57:56.314Z,4.32
2022-08-23T17:00:28.747Z,5.20
2022-08-23T17:03:02.057Z,4.88
2022-08-23T17:05:35.056Z,5.20
2022-08-23T17:08:07.518Z,4.03
2022-08-23T17:10:40.210Z,3.88
2022-08-23T17:13:14.850Z,5.55
2022-08-23T17:15:47.258Z,3.97
2022-08-23T17:18:20.347Z,4.75
2022-08-23T17:20:52.874Z,5.07
2022-08-23T17:23:25.370Z,4.00
2022-08-23T17:25:58.003Z,4.60
2022-08-23T17:28:31.608Z,3.30
2022-08-23T17:31:05.182Z,4.95
2022-08-23T17:33:39.203Z,3.88
2022-08-23T17:36:24.543Z,4.55
2022-08-23T17:38:57.331Z,6.75
2022-08-23T17:41:29.733Z,4.32
2022-08-23T17:44:07.953Z,3.63
2022-08-23T17:46:42.945Z,6.05
2022-08-23T17:49:17.397Z,4.15
2022-08-23T17:51:49.907Z,5.22
2022-08-23T17:54:22.355Z,3.42
2022-08-23T17:56:54.832Z,4.25
2022-08-23T17:59:27.791Z,3.35
2022-08-23T18:02:00.688Z,3.80
2022-08-23T18:04:33.902Z,5.00
2022-08-23T18:07:06.728Z,4.78
2022-08-23T18:09:43.784Z,3.97
2022-08-23T18:12:22.479Z,5.13
2022-08-23T18:14:55.353Z,5.28
2022-08-23T18:17:28.649Z,5.40
2022-08-23T18:20:02.332Z,5.22
2022-08-23T18:22:36.667Z,4.57
2022-08-23T18:25:12.583Z,3.72
2022-08-23T18:28:03.296Z,4.20
2022-08-23T18:30:37.700Z,3.17
2022-08-23T18:33:12.709Z,4.28
2022-08-23T18:35:47.426Z,4.45
2022-08-23T18:38:19.871Z,3.00
2022-08-23T18:40:52.549Z,3.65
2022-08-23T18:43:27.546Z,3.53
2022-08-23T18:46:10.904Z,3.13
2022-08-23T18:48:43.351Z,3.03
2022-08-23T18:51:27.559Z,3.95
2022-08-23T18:54:00.347Z,2.58
2022-08-23T18:56:34.443Z,4.55
2022-08-23T18:59:10.155Z,5.35
2022-08-23T19:01:45.176Z,2.28
2022-08-23T19:04:18.373Z,3.83
2022-08-23T19:06:54.206Z,3.40
2022-08-23T19:09:26.892Z,3.17
2022-08-23T19:12:00.475Z,3.88
2022-08-23T19:14:35.027Z,3.45
2022-08-23T19:17:07.797Z,3.10
2022-08-23T19:19:40.188Z,2.80
2022-08-23T19:22:13.854Z,2.28
2022-08-23T19:24:47.511Z,2.67
2022-08-23T19:27:20.020Z,5.25
2022-08-23T19:29:53.115Z,2.45
2022-08-23T19:32:25.551Z,1.63
2022-08-23T19:34:58.068Z,1.27
2022-08-23T19:37:31.299Z,2.33
2022-08-23T19:40:07.239Z,1.35
2022-08-23T19:42:39.948Z,2.25
2022-08-23T19:45:13.181Z,2.08
2022-08-23T19:47:45.727Z,2.20
2022-08-23T19:50:24.023Z,2.10
2022-08-23T19:52:57.603Z,2.70
2022-08-23T19:55:31.337Z,2.25
2022-08-23T19:58:05.192Z,3.55
2022-08-23T20:00:38.908Z,2.42
2022-08-23T20:03:11.475Z,2.60
2022-08-23T20:05:43.892Z,1.80
2022-08-23T20:08:16.942Z,2.50
2022-08-23T20:10:49.327Z,5.55
2022-08-23T20:13:22.690Z,3.65
2022-08-23T20:15:56.415Z,3.72
2022-08-23T20:18:28.909Z,2.55
2022-08-23T20:21:01.316Z,1.77
2022-08-23T20:23:52.788Z,1.75
2022-08-23T20:26:25.175Z,3.38
2022-08-23T20:28:59.699Z,3.00
2022-08-23T20:31:36.115Z,4.07
2022-08-23T20:34:09.349Z,3.47
2022-08-23T20:36:41.830Z,5.38
2022-08-23T20:39:16.243Z,5.32
2022-08-23T20:41:51.231Z,6.55
2022-08-23T20:44:25.559Z,8.60
2022-08-23T20:47:02.338Z,7.65
2022-08-23T20:49:35.613Z,5.45
2022-08-23T20:52:08.094Z,6.25
2022-08-23T20:54:41.235Z,5.55
2022-08-23T20:57:13.754Z,6.20
2022-08-23T20:59:46.192Z,5.82
2022-08-23T21:02:18.631Z,6.00
2022-08-23T21:04:51.367Z,6.70
2022-08-23T21:07:23.791Z,3.30
2022-08-23T21:10:00.004Z,4.30
2022-08-23T21:12:32.503Z,8.13
2022-08-23T21:15:10.615Z,4.35
2022-08-23T21:17:43.516Z,3.28
2022-08-23T21:20:20.119Z,3.92
2022-08-23T21:22:52.514Z,5.90
2022-08-23T21:25:25.627Z,5.60
2022-08-23T21:28:02.108Z,3.75
2022-08-23T21:30:36.602Z,4.18
2022-08-23T21:33:08.971Z,4.50
2022-08-23T21:35:41.434Z,3.95
2022-08-23T21:38:14.043Z,3.38
2022-08-23T21:40:54.426Z,4.25
2022-08-23T21:43:29.546Z,4.95
2022-08-23T21:46:02.042Z,4.15
2022-08-23T21:48:34.839Z,2.58
2022-08-23T21:51:08.299Z,4.85
2022-08-23T21:53:40.679Z,6.72
2022-08-23T21:56:13.902Z,5.32
2022-08-23T21:58:50.582Z,4.15
2022-08-23T22:01:23.266Z,4.50
2022-08-23T22:03:57.211Z,5.88
2022-08-23T22:06:30.499Z,4.68
2022-08-23T22:09:04.372Z,4.38
2022-08-23T22:11:39.861Z,8.05
2022-08-23T22:14:16.732Z,5.20
2022-08-23T22:16:55.053Z,4.00
2022-08-23T22:19:28.051Z,5.43
2022-08-23T22:22:00.512Z,5.40
2022-08-23T22:24:32.894Z,5.43
2022-08-23T22:27:06.218Z,6.40
2022-08-23T22:29:38.918Z,5.30
2022-08-23T22:32:11.408Z,4.78
2022-08-23T22:34:43.755Z,5.72
2022-08-23T22:37:16.226Z,5.22
2022-08-23T22:39:48.843Z,6.30
2022-08-23T22:42:21.975Z,6.05
2022-08-23T22:44:55.307Z,6.57
2022-08-23T22:47:28.177Z,5.28
2022-08-23T22:50:01.383Z,4.35
2022-08-23T22:52:33.899Z,5.40
2022-08-23T22:55:07.007Z,3.95
2022-08-23T22:57:40.119Z,5.55
2022-08-23T23:00:13.106Z,4.78
2022-08-23T23:02:45.792Z,5.05
2022-08-23T23:05:18.401Z,5.50
2022-08-23T23:08:09.070Z,6.25
2022-08-23T23:10:41.606Z,7.53
2022-08-23T23:13:14.755Z,5.18
2022-08-23T23:15:47.167Z,8.23
2022-08-23T23:18:20.619Z,7.10
2022-08-23T23:20:57.095Z,8.18
2022-08-23T23:23:32.840Z,8.43
2022-08-23T23:26:07.406Z,7.38
2022-08-23T23:28:40.491Z,6.90
2022-08-23T23:31:12.930Z,7.32
2022-08-23T23:33:45.394Z,9.75
2022-08-23T23:36:18.130Z,11.18
2022-08-23T23:38:50.750Z,10.30
2022-08-23T23:41:23.334Z,10.35
2022-08-23T23:43:56.516Z,8.88
2022-08-23T23:46:28.879Z,8.35
2022-08-23T23:49:01.498Z,11.18
2022-08-23T23:51:34.222Z,8.80
2022-08-23T23:54:07.563Z,11.20
2022-08-23T23:56:40.000Z,9.50
2022-08-23T23:59:13.546Z,10.80
